createdAt,value
2022-11-18T00:00:57.969Z,98497
2022-11-18T00:07:11.149Z,98505
2022-11-18T00:13:42.138Z,98517
2022-11-18T00:19:57.398Z,98521
2022-11-18T00:26:06.128Z,98518
2022-11-18T00:32:47.916Z,98514
2022-11-18T00:57:12.049Z,98529
2022-11-18T01:03:23.665Z,98546
2022-11-18T01:09:32.372Z,98564
2022-11-18T01:15:31.252Z,98557
2022-11-18T01:27:51.801Z,98561
2022-11-18T01:33:50.191Z,98567
2022-11-18T01:39:47.724Z,98569
2022-11-18T01:45:53.850Z,98584
2022-11-18T01:52:07.052Z,98584
2022-11-18T01:58:19.373Z,98587
2022-11-18T02:04:26.294Z,98594
2022-11-18T02:16:11.916Z,98594
2022-11-18T02:34:46.125Z,98605
2022-11-18T02:41:01.474Z,98623
2022-11-18T02:47:08.891Z,98624
2022-11-18T02:53:29.398Z,98620
2022-11-18T02:59:41.358Z,98629
2022-11-18T03:05:50.306Z,98628
2022-11-18T03:11:47.166Z,98644
2022-11-18T03:30:14.557Z,98655
2022-11-18T03:36:31.849Z,98661
2022-11-18T03:42:44.413Z,98673
2022-11-18T03:48:56.288Z,98691
2022-11-18T03:55:06.800Z,98701
2022-11-18T04:01:51.340Z,98713
2022-11-18T04:07:54.232Z,98717
2022-11-18T04:13:51.771Z,98719
2022-11-18T04:19:59.026Z,98726
2022-11-18T04:25:51.074Z,98728
2022-11-18T05:08:50.836Z,98751
2022-11-18T05:15:13.200Z,98759
2022-11-18T05:21:39.656Z,98774
2022-11-18T05:40:28.215Z,98789
2022-11-18T05:53:41.886Z,98811
2022-11-18T06:06:06.267Z,98810
2022-11-18T06:12:49.271Z,98821
2022-11-18T06:25:22.311Z,98834
2022-11-18T06:49:17.736Z,98867
2022-11-18T06:55:38.115Z,98876
2022-11-18T07:14:04.843Z,98907
2022-11-18T07:19:56.232Z,98919
2022-11-18T07:25:48.894Z,98930
2022-11-18T07:31:42.199Z,98931
2022-11-18T07:37:35.826Z,98941
2022-11-18T07:43:30.380Z,98953
2022-11-18T07:49:22.698Z,98957
2022-11-18T07:55:18.903Z,98963
2022-11-18T08:01:10.684Z,98968
2022-11-18T08:07:02.392Z,98975
2022-11-18T08:12:57.031Z,98981
2022-11-18T08:18:47.753Z,98989
2022-11-18T08:24:41.574Z,98992
2022-11-18T08:30:35.120Z,98999
2022-11-18T08:36:32.215Z,99007
2022-11-18T08:42:36.011Z,99009
2022-11-18T08:48:30.166Z,99021
2022-11-18T08:54:23.054Z,99018
2022-11-18T09:00:16.089Z,99028
2022-11-18T09:06:18.171Z,99036
2022-11-18T09:12:10.962Z,99039
2022-11-18T09:18:03.394Z,99043
2022-11-18T09:23:55.714Z,99041
2022-11-18T09:29:47.357Z,99046
2022-11-18T09:35:39.063Z,99057
2022-11-18T09:41:31.569Z,99061
2022-11-18T09:47:31.589Z,99068
2022-11-18T09:53:25.654Z,99083
2022-11-18T09:59:27.746Z,99087
2022-11-18T10:11:52.413Z,99107
2022-11-18T10:17:45.175Z,99107
2022-11-18T10:23:38.139Z,99108
2022-11-18T10:35:22.392Z,99107
2022-11-18T10:41:14.473Z,99112
2022-11-18T10:47:04.072Z,99112
2022-11-18T10:52:54.881Z,99118
2022-11-18T10:58:44.899Z,99118
2022-11-18T11:04:36.101Z,99118
2022-11-18T11:10:28.140Z,99114
2022-11-18T11:16:27.970Z,99117
2022-11-18T11:22:18.820Z,99123
2022-11-18T11:28:18.952Z,99124
2022-11-18T11:34:08.868Z,99121
2022-11-18T11:39:57.366Z,99133
2022-11-18T11:45:47.453Z,99136
2022-11-18T11:51:37.927Z,99137
2022-11-18T11:57:30.315Z,99145
2022-11-18T12:03:21.286Z,99140
2022-11-18T12:09:12.818Z,99138
2022-11-18T12:15:04.095Z,99152
2022-11-18T12:20:56.486Z,99149
2022-11-18T12:26:46.601Z,99148
2022-11-18T12:32:37.275Z,99155
2022-11-18T12:38:28.408Z,99159
2022-11-18T12:44:20.277Z,99163
2022-11-18T12:50:12.883Z,99167
2022-11-18T12:56:04.170Z,99164
2022-11-18T13:01:54.434Z,99174
2022-11-18T13:07:45.832Z,99171
2022-11-18T13:13:35.187Z,99181
2022-11-18T13:19:24.703Z,99178
2022-11-18T13:25:15.713Z,99177
2022-11-18T13:31:05.885Z,99177
2022-11-18T13:36:56.640Z,99179
2022-11-18T13:42:47.492Z,99186
2022-11-18T13:48:37.930Z,99190
2022-11-18T13:54:28.354Z,99186
2022-11-18T14:00:19.739Z,99189
2022-11-18T14:06:10.444Z,99192
2022-11-18T14:12:01.742Z,99193
2022-11-18T14:17:51.918Z,99193
2022-11-18T14:23:45.757Z,99196
2022-11-18T14:29:36.427Z,99208
2022-11-18T14:35:36.415Z,99211
2022-11-18T14:41:26.746Z,99217
2022-11-18T14:47:17.422Z,99220
2022-11-18T14:53:08.130Z,99226
2022-11-18T14:58:58.306Z,99219
2022-11-18T15:04:50.845Z,99234
2022-11-18T15:10:41.434Z,99226
2022-11-18T15:16:31.131Z,99228
2022-11-18T15:22:20.418Z,99240
2022-11-18T15:28:09.507Z,99245
2022-11-18T15:34:20.494Z,99241
2022-11-18T15:40:11.039Z,99257
2022-11-18T15:46:01.126Z,99263
2022-11-18T15:51:53.540Z,99255
2022-11-18T15:57:47.422Z,99263
2022-11-18T16:03:39.642Z,99268
2022-11-18T16:09:30.527Z,99270
2022-11-18T16:15:21.775Z,99271
2022-11-18T16:21:15.354Z,99272
2022-11-18T16:27:08.045Z,99278
2022-11-18T16:33:00.132Z,99278
2022-11-18T16:38:50.222Z,99284
2022-11-18T16:44:41.159Z,99289
2022-11-18T16:50:31.263Z,99296
2022-11-18T16:56:24.227Z,99299
2022-11-18T17:02:17.037Z,99299
2022-11-18T17:08:07.951Z,99309
2022-11-18T17:14:02.640Z,99322
2022-11-18T17:19:53.605Z,99322
2022-11-18T17:25:46.509Z,99324
2022-11-18T17:31:36.775Z,99326
2022-11-18T17:37:27.576Z,99326
2022-11-18T17:43:21.226Z,99331
2022-11-18T17:49:10.959Z,99340
2022-11-18T17:55:01.237Z,99348
2022-11-18T18:00:53.230Z,99343
2022-11-18T18:06:44.056Z,99354
2022-11-18T18:12:33.256Z,99358
2022-11-18T18:18:22.074Z,99359
2022-11-18T18:24:11.124Z,99363
2022-11-18T18:30:02.304Z,99372
2022-11-18T18:35:52.032Z,99374
2022-11-18T18:41:41.293Z,99377
2022-11-18T18:47:33.992Z,99387
2022-11-18T18:53:47.756Z,99388
2022-11-18T18:59:51.052Z,99396
2022-11-18T19:07:00.254Z,99400
2022-11-18T19:12:49.924Z,99395
2022-11-18T19:18:41.638Z,99390
2022-11-18T19:24:54.127Z,99391
2022-11-18T19:37:43.203Z,99403
2022-11-18T19:44:08.178Z,99405
2022-11-18T19:56:16.137Z,99421
2022-11-18T20:02:44.299Z,99422
2022-11-18T20:08:50.492Z,99421
2022-11-18T20:14:51.638Z,99426
2022-11-18T20:20:44.017Z,99431
2022-11-18T20:26:37.743Z,99441
2022-11-18T20:32:35.712Z,99442
2022-11-18T20:38:28.046Z,99447
2022-11-18T20:44:24.486Z,99450
2022-11-18T20:50:20.060Z,99448
2022-11-18T20:56:15.409Z,99448
2022-11-18T21:02:12.983Z,99454
2022-11-18T21:08:08.681Z,99461
2022-11-18T21:26:36.908Z,99470
2022-11-18T21:38:40.772Z,99483
2022-11-18T21:44:45.951Z,99486
2022-11-18T21:50:38.256Z,99483
2022-11-18T21:56:33.308Z,99486
2022-11-18T22:02:38.834Z,99493
2022-11-18T22:08:35.298Z,99488
2022-11-18T22:14:28.035Z,99489
2022-11-18T22:20:33.169Z,99495
2022-11-18T22:26:28.451Z,99497
2022-11-18T22:32:25.139Z,99488
2022-11-18T22:38:33.713Z,99495
2022-11-18T22:44:24.596Z,99492
2022-11-18T22:50:19.286Z,99496
2022-11-18T22:56:15.329Z,99490
2022-11-18T23:02:21.582Z,99490
2022-11-18T23:08:28.130Z,99487
2022-11-18T23:14:45.322Z,99492
2022-11-18T23:20:36.826Z,99494
2022-11-18T23:26:48.763Z,99494
2022-11-18T23:50:55.962Z,99504
2022-11-18T23:56:47.169Z,99498
